createdAt,value
2022-08-03T00:00:13.434Z,65.42
2022-08-03T00:01:13.424Z,67.35
2022-08-03T00:02:13.658Z,65.74
2022-08-03T00:03:13.477Z,64.78
2022-08-03T00:04:13.396Z,65.42
2022-08-03T00:05:13.381Z,67.84
2022-08-03T00:06:13.372Z,66.23
2022-08-03T00:07:13.364Z,69.61
2022-08-03T00:08:13.386Z,68.64
2022-08-03T00:09:14.348Z,68.96
2022-08-03T00:10:13.336Z,68.80
2022-08-03T00:11:13.323Z,70.58
2022-08-03T00:12:13.501Z,67.19
2022-08-03T00:13:13.303Z,67.51
2022-08-03T00:14:13.310Z,67.19
2022-08-03T00:15:16.282Z,69.77
2022-08-03T00:16:13.278Z,66.71
2022-08-03T00:17:13.257Z,67.35
2022-08-03T00:18:14.262Z,67.51
2022-08-03T00:19:13.282Z,70.25
2022-08-03T00:20:13.236Z,68.48
2022-08-03T00:21:13.232Z,69.29
2022-08-03T00:22:13.375Z,67.68
2022-08-03T00:23:13.205Z,69.29
2022-08-03T00:24:13.228Z,70.09
2022-08-03T00:25:13.192Z,65.74
2022-08-03T00:26:13.177Z,65.42
2022-08-03T00:27:15.118Z,68.96
2022-08-03T00:28:13.160Z,68.64
2022-08-03T00:29:13.155Z,67.35
2022-08-03T00:30:13.157Z,65.10
2022-08-03T00:31:13.639Z,71.06
2022-08-03T00:32:13.428Z,68.80
2022-08-03T00:33:13.117Z,67.35
2022-08-03T00:34:13.106Z,67.03
2022-08-03T00:35:27.393Z,69.61
2022-08-03T00:36:15.087Z,69.45
2022-08-03T00:37:13.076Z,68.48
2022-08-03T00:38:13.065Z,68.48
2022-08-03T00:39:13.054Z,67.68
2022-08-03T00:40:13.083Z,68.64
2022-08-03T00:41:13.035Z,69.45
2022-08-03T00:42:13.106Z,66.87
2022-08-03T00:43:13.016Z,65.42
2022-08-03T00:44:13.009Z,69.93
2022-08-03T00:45:13.032Z,69.77
2022-08-03T00:46:16.308Z,68.00
2022-08-03T00:47:13.982Z,68.48
2022-08-03T00:48:32.856Z,68.00
2022-08-03T00:49:15.008Z,68.16
2022-08-03T00:50:12.950Z,69.77
2022-08-03T00:51:12.953Z,67.84
2022-08-03T00:52:12.931Z,68.48
2022-08-03T00:53:12.923Z,64.61
2022-08-03T00:54:12.909Z,69.45
2022-08-03T00:55:12.905Z,69.77
2022-08-03T00:56:12.944Z,67.51
2022-08-03T00:57:12.888Z,66.71
2022-08-03T00:58:12.876Z,70.09
2022-08-03T00:59:12.868Z,70.58
2022-08-03T01:00:12.856Z,66.55
2022-08-03T01:01:13.076Z,66.39
2022-08-03T01:02:12.832Z,67.51
2022-08-03T01:03:12.823Z,69.77
2022-08-03T01:04:12.809Z,68.80
2022-08-03T01:05:12.805Z,70.25
2022-08-03T01:06:12.795Z,68.48
2022-08-03T01:07:12.799Z,70.42
2022-08-03T01:08:12.772Z,69.93
2022-08-03T01:09:12.767Z,65.90
2022-08-03T01:10:12.755Z,69.13
2022-08-03T01:11:12.745Z,69.61
2022-08-03T01:12:12.753Z,68.00
2022-08-03T01:13:59.787Z,67.68
2022-08-03T01:14:18.577Z,68.00
2022-08-03T01:15:13.710Z,69.61
2022-08-03T01:16:12.698Z,69.77
2022-08-03T01:17:12.705Z,68.00
2022-08-03T01:18:12.678Z,69.77
2022-08-03T01:19:12.670Z,69.77
2022-08-03T01:20:12.657Z,68.64
2022-08-03T01:21:12.650Z,70.58
2022-08-03T01:22:12.671Z,71.06
2022-08-03T01:23:12.628Z,66.55
2022-08-03T01:24:12.622Z,69.29
2022-08-03T01:25:12.610Z,67.51
2022-08-03T01:26:12.604Z,69.29
2022-08-03T01:27:12.635Z,66.87
2022-08-03T01:28:12.597Z,68.96
2022-08-03T01:29:12.576Z,67.68
2022-08-03T01:30:12.574Z,68.48
2022-08-03T01:31:12.556Z,69.77
2022-08-03T01:33:00.340Z,67.19
2022-08-03T01:33:13.548Z,69.61
2022-08-03T01:34:14.720Z,67.03
2022-08-03T01:35:12.513Z,69.93
2022-08-03T01:36:12.504Z,68.32
2022-08-03T01:37:12.498Z,68.96
2022-08-03T01:38:12.503Z,70.58
2022-08-03T01:39:13.475Z,66.71
2022-08-03T01:40:12.505Z,73.48
2022-08-03T01:41:12.455Z,70.74
2022-08-03T01:42:12.444Z,69.93
2022-08-03T01:43:12.464Z,69.77
2022-08-03T01:44:30.030Z,70.25
2022-08-03T01:45:13.414Z,66.55
2022-08-03T01:46:12.405Z,69.93
2022-08-03T01:47:12.392Z,71.22
2022-08-03T01:48:12.411Z,67.19
2022-08-03T01:49:12.431Z,68.64
2022-08-03T01:50:12.392Z,70.42
2022-08-03T01:51:12.357Z,71.22
2022-08-03T01:52:12.343Z,69.13
2022-08-03T01:53:12.340Z,69.29
2022-08-03T01:54:12.353Z,67.35
2022-08-03T01:55:12.313Z,68.96
2022-08-03T01:56:12.309Z,66.39
2022-08-03T01:57:12.298Z,70.09
2022-08-03T01:58:12.289Z,69.61
2022-08-03T01:59:12.334Z,68.64
2022-08-03T02:00:12.273Z,68.16
2022-08-03T02:01:12.314Z,70.58
2022-08-03T02:02:31.722Z,69.93
2022-08-03T02:03:13.238Z,66.87
2022-08-03T02:04:12.273Z,67.35
2022-08-03T02:05:12.217Z,69.93
2022-08-03T02:06:55.626Z,68.16
2022-08-03T02:07:14.195Z,69.77
2022-08-03T02:08:12.189Z,68.16
2022-08-03T02:09:12.178Z,69.61
2022-08-03T02:10:12.184Z,68.64
2022-08-03T02:11:12.159Z,72.19
2022-08-03T02:12:12.151Z,68.48
2022-08-03T02:13:12.154Z,67.68
2022-08-03T02:14:12.125Z,69.61
2022-08-03T02:15:12.158Z,72.67
2022-08-03T02:16:12.106Z,69.77
2022-08-03T02:17:12.105Z,68.64
2022-08-03T02:18:12.088Z,71.38
2022-08-03T02:19:12.078Z,72.67
2022-08-03T02:20:12.122Z,69.61
2022-08-03T02:21:12.065Z,68.48
2022-08-03T02:22:13.264Z,70.42
2022-08-03T02:23:12.036Z,67.19
2022-08-03T02:24:12.027Z,70.25
2022-08-03T02:25:12.020Z,66.87
2022-08-03T02:26:12.027Z,69.45
2022-08-03T02:27:11.999Z,71.06
2022-08-03T02:28:11.988Z,68.80
2022-08-03T02:29:11.980Z,72.03
2022-08-03T02:30:11.971Z,70.25
2022-08-03T02:31:11.999Z,69.13
2022-08-03T02:32:11.953Z,68.00
2022-08-03T02:33:11.943Z,67.68
2022-08-03T02:34:11.930Z,69.45
2022-08-03T02:35:11.934Z,71.38
2022-08-03T02:36:11.956Z,70.58
2022-08-03T02:37:11.906Z,68.00
2022-08-03T02:38:11.885Z,70.74
2022-08-03T02:39:12.881Z,69.45
2022-08-03T02:40:11.872Z,70.74
2022-08-03T02:41:11.861Z,71.06
2022-08-03T02:42:12.158Z,70.90
2022-08-03T02:43:11.843Z,69.45
2022-08-03T02:44:11.822Z,68.16
2022-08-03T02:45:12.826Z,67.51
2022-08-03T02:46:11.806Z,68.96
2022-08-03T02:47:11.816Z,72.35
2022-08-03T02:48:11.791Z,77.50
2022-08-03T02:49:40.571Z,72.83
2022-08-03T02:50:12.786Z,69.61
2022-08-03T02:51:12.768Z,71.06
2022-08-03T02:52:13.172Z,73.48
2022-08-03T02:53:11.749Z,71.54
2022-08-03T02:54:11.735Z,68.32
2022-08-03T02:55:11.727Z,71.22
2022-08-03T02:56:11.723Z,70.74
2022-08-03T02:57:11.736Z,70.09
2022-08-03T02:58:11.701Z,70.58
2022-08-03T02:59:11.688Z,71.06
2022-08-03T03:00:11.683Z,71.06
2022-08-03T03:01:11.703Z,69.93
2022-08-03T03:02:11.716Z,71.22
2022-08-03T03:03:11.652Z,73.48
2022-08-03T03:04:11.641Z,70.42
2022-08-03T03:05:54.711Z,72.67
2022-08-03T03:06:12.621Z,68.96
2022-08-03T03:07:11.637Z,70.25
2022-08-03T03:08:18.504Z,70.90
2022-08-03T03:09:12.596Z,72.51
2022-08-03T03:10:11.578Z,71.06
2022-08-03T03:11:11.571Z,70.42
2022-08-03T03:12:11.563Z,70.25
2022-08-03T03:13:11.585Z,70.25
2022-08-03T03:14:11.543Z,72.35
2022-08-03T03:15:11.532Z,67.84
2022-08-03T03:16:11.526Z,74.28
2022-08-03T03:17:11.513Z,70.74
2022-08-03T03:18:11.547Z,70.74
2022-08-03T03:19:11.516Z,72.67
2022-08-03T03:20:11.484Z,73.15
2022-08-03T03:21:11.474Z,73.64
2022-08-03T03:22:11.462Z,70.58
2022-08-03T03:23:11.452Z,72.03
2022-08-03T03:24:11.459Z,71.70
2022-08-03T03:25:11.432Z,71.54
2022-08-03T03:26:11.419Z,70.42
2022-08-03T03:27:11.414Z,73.32
2022-08-03T03:28:12.406Z,69.29
2022-08-03T03:29:11.411Z,72.83
2022-08-03T03:30:11.388Z,72.99
2022-08-03T03:31:11.375Z,71.87
2022-08-03T03:32:11.363Z,70.74
2022-08-03T03:33:11.354Z,72.03
2022-08-03T03:34:11.375Z,75.41
2022-08-03T03:35:11.334Z,72.19
2022-08-03T03:36:11.320Z,71.38
2022-08-03T03:37:11.314Z,71.70
2022-08-03T03:38:11.301Z,71.06
2022-08-03T03:39:15.676Z,74.44
2022-08-03T03:40:12.277Z,73.15
2022-08-03T03:41:11.273Z,73.32
2022-08-03T03:42:11.268Z,74.44
2022-08-03T03:43:11.257Z,72.19
2022-08-03T03:44:11.246Z,72.83
2022-08-03T03:45:11.269Z,73.80
2022-08-03T03:46:11.227Z,72.51
2022-08-03T03:47:11.219Z,72.67
2022-08-03T03:48:11.206Z,72.83
2022-08-03T03:49:11.286Z,69.93
2022-08-03T03:50:11.223Z,74.77
2022-08-03T03:51:11.180Z,72.35
2022-08-03T03:52:11.172Z,77.18
2022-08-03T03:53:11.168Z,73.32
2022-08-03T03:54:11.168Z,71.06
2022-08-03T03:55:11.143Z,72.19
2022-08-03T03:56:11.150Z,71.87
2022-08-03T03:57:13.105Z,71.70
2022-08-03T03:58:11.115Z,71.70
2022-08-03T03:59:11.100Z,72.03
2022-08-03T04:00:11.094Z,72.67
2022-08-03T04:01:11.156Z,72.83
2022-08-03T04:02:11.080Z,71.87
2022-08-03T04:03:11.064Z,72.35
2022-08-03T04:04:11.058Z,72.83
2022-08-03T04:05:11.042Z,69.45
2022-08-03T04:06:11.083Z,71.54
2022-08-03T04:07:11.028Z,71.70
2022-08-03T04:08:11.018Z,73.64
2022-08-03T04:09:11.007Z,72.51
2022-08-03T04:10:14.766Z,73.15
2022-08-03T04:11:11.036Z,72.51
2022-08-03T04:12:10.979Z,73.32
2022-08-03T04:13:10.966Z,73.80
2022-08-03T04:14:10.959Z,72.99
2022-08-03T04:15:10.949Z,71.54
2022-08-03T04:16:10.937Z,74.77
2022-08-03T04:17:10.943Z,75.09
2022-08-03T04:18:10.917Z,73.96
2022-08-03T04:19:10.911Z,73.15
2022-08-03T04:20:10.901Z,74.60
2022-08-03T04:21:10.889Z,71.06
2022-08-03T04:22:10.897Z,73.48
2022-08-03T04:23:13.573Z,73.15
2022-08-03T04:24:11.858Z,74.93
2022-08-03T04:25:10.854Z,73.32
2022-08-03T04:26:10.844Z,73.48
2022-08-03T04:27:37.794Z,72.19
2022-08-03T04:28:30.995Z,69.45
2022-08-03T04:29:11.807Z,71.87
2022-08-03T04:30:10.801Z,75.41
2022-08-03T04:31:10.793Z,71.38
2022-08-03T04:32:10.788Z,70.58
2022-08-03T04:33:10.825Z,70.25
2022-08-03T04:34:10.776Z,71.06
2022-08-03T04:35:10.756Z,71.22
2022-08-03T04:36:10.746Z,72.83
2022-08-03T04:37:10.735Z,71.22
2022-08-03T04:38:10.827Z,71.54
2022-08-03T04:39:10.718Z,69.93
2022-08-03T04:40:10.707Z,72.51
2022-08-03T04:41:10.696Z,72.99
2022-08-03T04:42:10.683Z,72.67
2022-08-03T04:43:10.675Z,73.32
2022-08-03T04:44:10.687Z,69.61
2022-08-03T04:45:10.656Z,72.51
2022-08-03T04:46:10.647Z,73.80
2022-08-03T04:47:10.633Z,71.06
2022-08-03T04:48:10.641Z,74.12
2022-08-03T04:49:10.723Z,72.67
2022-08-03T04:50:13.489Z,72.03
2022-08-03T04:51:11.596Z,72.35
2022-08-03T04:52:10.613Z,72.03
2022-08-03T04:53:10.581Z,73.64
2022-08-03T04:54:10.597Z,72.19
2022-08-03T04:55:10.561Z,71.54
2022-08-03T04:56:10.547Z,73.15
2022-08-03T04:57:10.541Z,73.64
2022-08-03T04:58:11.527Z,71.22
2022-08-03T04:59:10.523Z,69.77
2022-08-03T05:00:10.528Z,72.83
2022-08-03T05:01:10.567Z,71.70
2022-08-03T05:02:10.569Z,69.45
2022-08-03T05:03:19.574Z,71.70
2022-08-03T05:04:11.475Z,71.87
2022-08-03T05:05:10.477Z,70.90
2022-08-03T05:06:11.375Z,71.06
2022-08-03T05:07:11.619Z,71.22
2022-08-03T05:08:11.194Z,71.06
2022-08-03T05:09:10.428Z,72.83
2022-08-03T05:10:16.047Z,70.42
2022-08-03T05:11:11.402Z,71.38
2022-08-03T05:12:10.396Z,69.77
2022-08-03T05:13:10.387Z,70.58
2022-08-03T05:14:10.378Z,70.74
2022-08-03T05:15:10.411Z,69.93
2022-08-03T05:16:10.361Z,69.13
2022-08-03T05:17:10.347Z,71.22
2022-08-03T05:18:13.962Z,69.13
2022-08-03T05:19:11.330Z,70.42
2022-08-03T05:20:10.355Z,69.93
2022-08-03T05:21:10.309Z,70.09
2022-08-03T05:22:10.340Z,70.74
2022-08-03T05:23:11.292Z,73.48
2022-08-03T05:24:10.279Z,70.58
2022-08-03T05:25:10.260Z,69.45
2022-08-03T05:26:12.279Z,71.06
2022-08-03T05:27:10.249Z,67.51
2022-08-03T05:28:10.243Z,69.77
2022-08-03T05:29:10.240Z,65.42
2022-08-03T05:30:30.589Z,69.77
2022-08-03T05:31:11.228Z,68.32
2022-08-03T05:32:10.251Z,71.22
2022-08-03T05:33:10.193Z,70.90
2022-08-03T05:34:10.181Z,68.96
2022-08-03T05:36:00.609Z,71.06
2022-08-03T05:36:11.211Z,68.80
2022-08-03T05:37:10.148Z,67.51
2022-08-03T05:38:10.146Z,68.48
2022-08-03T05:39:10.131Z,70.58
2022-08-03T05:40:10.121Z,69.93
2022-08-03T05:41:22.000Z,69.13
2022-08-03T05:42:11.100Z,72.03
2022-08-03T05:43:10.091Z,69.61
2022-08-03T05:44:10.081Z,69.45
2022-08-03T05:45:10.072Z,69.45
2022-08-03T05:46:12.440Z,70.42
2022-08-03T05:47:10.064Z,69.61
2022-08-03T05:48:10.038Z,70.58
2022-08-03T05:49:10.143Z,69.29
2022-08-03T05:50:10.022Z,68.96
2022-08-03T05:51:10.011Z,68.00
2022-08-03T05:52:14.893Z,69.13
2022-08-03T05:53:10.992Z,72.99
2022-08-03T05:54:09.986Z,67.84
2022-08-03T05:55:09.978Z,68.48
2022-08-03T05:56:13.562Z,70.58
2022-08-03T05:57:10.971Z,69.77
2022-08-03T05:58:09.951Z,70.90
2022-08-03T05:59:35.684Z,69.29
2022-08-03T06:00:11.933Z,69.61
2022-08-03T06:01:09.967Z,69.77
2022-08-03T06:02:10.017Z,70.42
2022-08-03T06:03:09.900Z,71.06
2022-08-03T06:04:09.890Z,67.68
2022-08-03T06:05:09.878Z,69.77
2022-08-03T06:06:09.872Z,67.51
2022-08-03T06:07:09.900Z,68.32
2022-08-03T06:08:09.851Z,69.77
2022-08-03T06:09:10.846Z,69.77
2022-08-03T06:10:37.133Z,71.22
2022-08-03T06:11:10.822Z,69.45
2022-08-03T06:12:13.938Z,67.19
2022-08-03T06:13:10.823Z,67.35
2022-08-03T06:14:09.798Z,67.35
2022-08-03T06:15:11.523Z,70.09
2022-08-03T06:16:09.790Z,67.84
2022-08-03T06:17:09.764Z,68.00
2022-08-03T06:18:09.768Z,69.61
2022-08-03T06:19:09.745Z,69.77
2022-08-03T06:20:09.733Z,68.80
2022-08-03T06:21:15.620Z,69.13
2022-08-03T06:22:10.718Z,67.68
2022-08-03T06:23:16.184Z,67.35
2022-08-03T06:24:10.700Z,69.61
2022-08-03T06:25:12.800Z,67.51
2022-08-03T06:26:11.192Z,68.64
2022-08-03T06:27:09.676Z,67.84
2022-08-03T06:28:19.110Z,67.19
2022-08-03T06:29:11.666Z,68.48
2022-08-03T06:30:09.646Z,69.29
2022-08-03T06:31:09.639Z,68.00
2022-08-03T06:32:09.623Z,67.68
2022-08-03T06:33:09.642Z,66.55
2022-08-03T06:34:32.872Z,67.51
2022-08-03T06:35:10.590Z,67.35
2022-08-03T06:36:09.577Z,67.19
2022-08-03T06:37:09.568Z,66.87
2022-08-03T06:38:09.603Z,66.71
2022-08-03T06:39:09.556Z,65.74
2022-08-03T06:40:09.541Z,67.03
2022-08-03T06:41:09.625Z,68.64
2022-08-03T06:42:09.877Z,67.35
2022-08-03T06:43:12.585Z,66.23
2022-08-03T06:44:10.521Z,65.90
2022-08-03T06:45:09.498Z,66.06
2022-08-03T06:46:09.487Z,64.29
2022-08-03T06:47:09.475Z,67.35
2022-08-03T06:48:10.465Z,64.78
2022-08-03T06:49:09.543Z,66.55
2022-08-03T06:50:14.932Z,66.06
2022-08-03T06:51:10.433Z,65.42
2022-08-03T06:52:09.428Z,67.03
2022-08-03T06:53:09.419Z,66.23
2022-08-03T06:54:10.447Z,66.55
2022-08-03T06:55:09.399Z,67.03
2022-08-03T06:56:09.388Z,64.45
2022-08-03T06:57:09.377Z,67.51
2022-08-03T06:58:09.363Z,67.03
2022-08-03T06:59:09.386Z,67.84
2022-08-03T07:00:12.401Z,65.74
2022-08-03T07:01:10.418Z,67.51
2022-08-03T07:02:09.351Z,65.58
2022-08-03T07:03:09.339Z,65.10
2022-08-03T07:04:09.315Z,66.23
2022-08-03T07:05:09.313Z,64.29
2022-08-03T07:06:09.291Z,66.06
2022-08-03T07:07:09.287Z,65.74
2022-08-03T07:08:09.267Z,66.23
2022-08-03T07:09:09.262Z,64.61
2022-08-03T07:10:09.265Z,66.06
2022-08-03T07:11:09.235Z,65.74
2022-08-03T07:12:09.230Z,66.39
2022-08-03T07:13:09.254Z,65.90
2022-08-03T07:14:09.211Z,67.51
2022-08-03T07:15:09.218Z,65.74
2022-08-03T07:16:10.190Z,63.97
2022-08-03T07:17:11.624Z,65.74
2022-08-03T07:18:09.171Z,68.32
2022-08-03T07:19:09.163Z,64.45
2022-08-03T07:20:09.177Z,65.42
2022-08-03T07:21:09.142Z,66.55
2022-08-03T07:22:09.158Z,66.55
2022-08-03T07:23:09.133Z,66.55
2022-08-03T07:24:09.116Z,66.55
2022-08-03T07:25:09.135Z,65.58
2022-08-03T07:26:09.094Z,64.78
2022-08-03T07:27:10.090Z,65.26
2022-08-03T07:28:09.083Z,63.81
2022-08-03T07:29:14.899Z,64.78
2022-08-03T07:30:10.092Z,64.94
2022-08-03T07:31:09.051Z,64.13
2022-08-03T07:32:09.043Z,62.84
2022-08-03T07:33:09.031Z,63.65
2022-08-03T07:34:09.024Z,64.13
2022-08-03T07:35:09.011Z,63.49
2022-08-03T07:36:10.034Z,65.10
2022-08-03T07:37:08.993Z,63.33
2022-08-03T07:38:08.987Z,63.16
2022-08-03T07:39:15.949Z,65.10
2022-08-03T07:40:09.967Z,65.26
2022-08-03T07:41:08.996Z,64.29
2022-08-03T07:42:08.951Z,65.26
2022-08-03T07:43:08.941Z,64.78
2022-08-03T07:44:08.925Z,64.45
2022-08-03T07:45:08.919Z,64.61
2022-08-03T07:46:09.935Z,66.71
2022-08-03T07:47:09.190Z,67.51
2022-08-03T07:48:12.397Z,64.78
2022-08-03T07:49:09.915Z,63.65
2022-08-03T07:50:08.982Z,66.87
2022-08-03T07:51:08.867Z,65.10
2022-08-03T07:52:08.880Z,65.74
2022-08-03T07:53:08.841Z,65.74
2022-08-03T07:54:08.831Z,66.39
2022-08-03T07:55:08.821Z,64.61
2022-08-03T07:56:11.477Z,65.26
2022-08-03T07:57:08.815Z,66.06
2022-08-03T07:58:08.794Z,66.71
2022-08-03T07:59:08.785Z,64.13
2022-08-03T08:00:08.777Z,65.10
2022-08-03T08:01:08.832Z,65.90
2022-08-03T08:02:08.768Z,66.71
2022-08-03T08:03:08.761Z,67.68
2022-08-03T08:04:08.732Z,65.58
2022-08-03T08:05:08.727Z,66.06
2022-08-03T08:06:08.723Z,64.94
2022-08-03T08:07:08.706Z,65.42
2022-08-03T08:08:08.711Z,66.87
2022-08-03T08:09:08.688Z,68.32
2022-08-03T08:10:08.676Z,68.00
2022-08-03T08:11:08.668Z,67.68
2022-08-03T08:12:15.014Z,67.84
2022-08-03T08:13:09.691Z,66.55
2022-08-03T08:14:08.637Z,66.55
2022-08-03T08:15:08.632Z,66.55
2022-08-03T08:16:08.614Z,65.74
2022-08-03T08:17:08.608Z,67.03
2022-08-03T08:18:08.656Z,66.06
2022-08-03T08:19:08.587Z,64.61
2022-08-03T08:20:08.578Z,66.23
2022-08-03T08:21:08.777Z,68.00
2022-08-03T08:22:08.578Z,65.58
2022-08-03T08:23:20.843Z,65.26
2022-08-03T08:24:11.059Z,64.78
2022-08-03T08:25:10.539Z,68.32
2022-08-03T08:26:08.525Z,64.29
2022-08-03T08:27:08.515Z,66.87
2022-08-03T08:28:29.286Z,67.51
2022-08-03T08:29:09.529Z,66.71
2022-08-03T08:30:11.441Z,66.23
2022-08-03T08:31:09.476Z,65.58
2022-08-03T08:32:08.459Z,67.51
2022-08-03T08:33:10.473Z,65.58
2022-08-03T08:34:10.468Z,67.35
2022-08-03T08:35:08.431Z,66.39
2022-08-03T08:36:13.308Z,63.97
2022-08-03T08:37:09.410Z,65.26
2022-08-03T08:38:08.402Z,63.49
2022-08-03T08:39:08.388Z,68.16
2022-08-03T08:40:08.395Z,68.00
2022-08-03T08:41:08.366Z,65.58
2022-08-03T08:42:08.365Z,64.61
2022-08-03T08:43:08.355Z,62.36
2022-08-03T08:44:08.345Z,65.58
2022-08-03T08:45:08.351Z,66.87
2022-08-03T08:46:08.459Z,66.71
2022-08-03T08:47:08.315Z,65.90
2022-08-03T08:48:08.629Z,67.35
2022-08-03T08:49:09.371Z,65.26
2022-08-03T08:50:15.556Z,64.45
2022-08-03T08:51:10.276Z,63.97
2022-08-03T08:52:22.156Z,63.33
2022-08-03T08:53:09.877Z,66.06
2022-08-03T08:54:09.250Z,64.29
2022-08-03T08:55:08.283Z,66.39
2022-08-03T08:56:08.231Z,65.10
2022-08-03T08:57:21.307Z,65.74
2022-08-03T08:58:10.251Z,64.61
2022-08-03T08:59:08.199Z,62.20
2022-08-03T09:00:08.194Z,63.49
2022-08-03T09:01:08.230Z,63.33
2022-08-03T09:02:08.167Z,64.45
2022-08-03T09:03:08.163Z,64.13
2022-08-03T09:04:08.153Z,63.65
2022-08-03T09:05:08.140Z,63.00
2022-08-03T09:06:08.145Z,65.74
2022-08-03T09:07:19.754Z,63.33
2022-08-03T09:08:10.116Z,65.10
2022-08-03T09:09:08.306Z,65.74
2022-08-03T09:10:11.766Z,63.97
2022-08-03T09:11:09.144Z,75.41
2022-08-03T09:12:35.337Z,64.78
2022-08-03T09:13:10.064Z,63.65
2022-08-03T09:14:08.058Z,64.61
2022-08-03T09:15:16.940Z,64.94
2022-08-03T09:16:10.077Z,64.13
2022-08-03T09:17:08.029Z,63.81
2022-08-03T09:18:08.024Z,66.39
2022-08-03T09:19:08.014Z,65.58
2022-08-03T09:20:08.006Z,65.74
2022-08-03T09:21:29.753Z,63.81
2022-08-03T09:22:09.999Z,64.45
2022-08-03T09:23:43.008Z,66.06
2022-08-03T09:24:20.594Z,64.29
2022-08-03T09:25:23.828Z,66.87
2022-08-03T09:26:09.964Z,63.33
2022-08-03T09:27:08.932Z,62.20
2022-08-03T09:28:07.922Z,63.65
2022-08-03T09:29:13.429Z,63.33
2022-08-03T09:30:33.657Z,63.33
2022-08-03T09:31:08.911Z,65.42
2022-08-03T09:32:07.901Z,62.52
2022-08-03T09:33:08.333Z,62.20
2022-08-03T09:34:08.869Z,62.36
2022-08-03T09:35:09.504Z,64.29
2022-08-03T09:36:07.849Z,63.49
2022-08-03T09:37:07.856Z,63.65
2022-08-03T09:38:13.725Z,62.84
2022-08-03T09:39:08.833Z,63.49
2022-08-03T09:40:08.343Z,62.84
2022-08-03T09:41:07.806Z,63.33
2022-08-03T09:42:07.830Z,64.13
2022-08-03T09:43:07.784Z,64.29
2022-08-03T09:44:07.779Z,62.20
2022-08-03T09:45:07.773Z,63.81
2022-08-03T09:46:07.814Z,64.45
2022-08-03T09:47:07.789Z,63.65
2022-08-03T09:48:07.738Z,64.29
2022-08-03T09:49:11.679Z,64.29
2022-08-03T09:50:07.722Z,63.00
2022-08-03T09:51:13.086Z,62.04
2022-08-03T09:52:32.683Z,61.39
2022-08-03T09:53:08.694Z,62.84
2022-08-03T09:54:15.101Z,62.36
2022-08-03T09:56:34.595Z,62.84
2022-08-03T09:56:35.821Z,62.68
2022-08-03T09:57:08.659Z,59.14
2022-08-03T09:58:07.661Z,61.55
2022-08-03T09:59:07.637Z,61.87
2022-08-03T10:00:08.473Z,62.68
2022-08-03T10:01:23.991Z,63.00
2022-08-03T10:02:08.612Z,63.33
2022-08-03T10:03:07.620Z,62.36
2022-08-03T10:04:07.591Z,63.65
2022-08-03T10:05:07.593Z,63.81
2022-08-03T10:06:07.590Z,64.61
2022-08-03T10:07:07.569Z,65.26
2022-08-03T10:08:07.591Z,65.90
2022-08-03T10:09:07.547Z,63.65
2022-08-03T10:10:30.226Z,63.16
2022-08-03T10:11:08.520Z,60.10
2022-08-03T10:12:07.516Z,61.23
2022-08-03T10:13:07.555Z,64.29
2022-08-03T10:14:07.494Z,62.52
2022-08-03T10:15:07.507Z,58.49
2022-08-03T10:16:22.182Z,61.39
2022-08-03T10:17:08.470Z,61.55
2022-08-03T10:18:07.462Z,62.04
2022-08-03T10:19:07.475Z,59.14
2022-08-03T10:20:07.438Z,59.94
2022-08-03T10:21:07.433Z,63.33
2022-08-03T10:22:07.425Z,63.49
2022-08-03T10:23:07.419Z,63.16
2022-08-03T10:24:07.423Z,63.49
2022-08-03T10:25:07.400Z,64.29
2022-08-03T10:26:07.384Z,64.94
2022-08-03T10:27:07.425Z,63.16
2022-08-03T10:28:07.366Z,63.00
2022-08-03T10:29:07.374Z,61.87
2022-08-03T10:30:08.352Z,59.46
2022-08-03T10:31:07.351Z,61.39
2022-08-03T10:32:07.406Z,61.71
2022-08-03T10:33:15.637Z,61.71
2022-08-03T10:34:08.345Z,60.59
2022-08-03T10:35:19.075Z,60.42
2022-08-03T10:36:08.299Z,62.04
2022-08-03T10:37:07.287Z,63.00
2022-08-03T10:38:07.271Z,60.42
2022-08-03T10:39:16.296Z,61.07
2022-08-03T10:40:08.330Z,61.87
2022-08-03T10:41:07.253Z,60.26
2022-08-03T10:42:10.682Z,61.71
2022-08-03T10:43:08.238Z,63.16
2022-08-03T10:44:07.242Z,62.04
2022-08-03T10:45:07.238Z,62.20
2022-08-03T10:46:07.206Z,62.04
2022-08-03T10:47:07.193Z,58.65
2022-08-03T10:48:07.192Z,60.26
2022-08-03T10:49:07.217Z,60.42
2022-08-03T10:50:07.182Z,59.94
2022-08-03T10:51:07.160Z,61.71
2022-08-03T10:52:11.349Z,61.71
2022-08-03T10:53:08.149Z,62.20
2022-08-03T10:54:07.129Z,60.75
2022-08-03T10:55:07.592Z,61.23
2022-08-03T10:56:07.105Z,60.75
2022-08-03T10:57:13.509Z,61.39
2022-08-03T10:58:11.140Z,57.69
2022-08-03T10:59:08.904Z,60.75
2022-08-03T11:00:07.102Z,62.04
2022-08-03T11:01:07.093Z,59.78
2022-08-03T11:02:07.093Z,62.36
2022-08-03T11:03:07.047Z,62.84
2022-08-03T11:04:10.975Z,61.87
2022-08-03T11:05:09.043Z,61.39
2022-08-03T11:06:07.035Z,62.20
2022-08-03T11:07:07.012Z,60.10
2022-08-03T11:08:07.003Z,60.59
2022-08-03T11:09:07.001Z,59.14
2022-08-03T11:10:10.535Z,61.71
2022-08-03T11:11:07.977Z,61.71
2022-08-03T11:12:06.978Z,61.87
2022-08-03T11:13:06.958Z,61.87
2022-08-03T11:14:06.948Z,61.71
2022-08-03T11:15:07.215Z,62.36
2022-08-03T11:16:10.937Z,62.36
2022-08-03T11:17:08.068Z,62.84
2022-08-03T11:18:07.919Z,62.84
2022-08-03T11:19:06.907Z,62.04
2022-08-03T11:20:06.931Z,64.29
2022-08-03T11:21:06.891Z,62.52
2022-08-03T11:22:06.879Z,62.36
2022-08-03T11:23:06.874Z,61.39
2022-08-03T11:24:07.029Z,60.75
2022-08-03T11:25:06.901Z,60.75
2022-08-03T11:26:06.849Z,59.46
2022-08-03T11:27:06.838Z,59.62
2022-08-03T11:28:06.830Z,60.42
2022-08-03T11:29:06.822Z,61.23
2022-08-03T11:30:06.814Z,61.71
2022-08-03T11:31:06.827Z,62.84
2022-08-03T11:32:06.797Z,61.87
2022-08-03T11:33:06.792Z,63.81
2022-08-03T11:34:06.775Z,65.10
2022-08-03T11:35:06.773Z,63.65
2022-08-03T11:36:06.785Z,62.36
2022-08-03T11:37:06.819Z,61.39
2022-08-03T11:38:06.753Z,59.14
2022-08-03T11:39:06.741Z,61.39
2022-08-03T11:40:06.733Z,60.75
2022-08-03T11:41:06.747Z,61.23
2022-08-03T11:42:06.712Z,59.78
2022-08-03T11:43:06.714Z,59.30
2022-08-03T11:44:06.698Z,59.62
2022-08-03T11:45:06.698Z,59.62
2022-08-03T11:46:06.705Z,60.26
2022-08-03T11:47:06.675Z,59.14
2022-08-03T11:48:06.668Z,61.23
2022-08-03T11:49:10.265Z,61.23
2022-08-03T11:50:07.696Z,61.55
2022-08-03T11:51:06.689Z,63.16
2022-08-03T11:52:06.659Z,62.36
2022-08-03T11:53:06.651Z,62.52
2022-08-03T11:54:06.623Z,63.33
2022-08-03T11:55:06.617Z,59.78
2022-08-03T11:56:06.647Z,60.26
2022-08-03T11:57:07.609Z,60.91
2022-08-03T11:59:10.606Z,60.10
2022-08-03T11:59:18.814Z,62.04
2022-08-03T12:00:07.611Z,63.16
2022-08-03T12:01:06.568Z,61.23
2022-08-03T12:02:06.576Z,61.23
2022-08-03T12:03:06.651Z,62.52
2022-08-03T12:04:06.548Z,61.55
2022-08-03T12:05:06.535Z,61.39
2022-08-03T12:06:06.530Z,63.65
2022-08-03T12:07:06.535Z,62.84
2022-08-03T12:08:07.182Z,60.75
2022-08-03T12:09:07.501Z,60.26
2022-08-03T12:10:06.542Z,62.68
2022-08-03T12:11:06.484Z,62.04
2022-08-03T12:12:06.498Z,61.71
2022-08-03T12:14:27.419Z,60.42
2022-08-03T12:14:51.063Z,58.81
2022-08-03T12:15:07.469Z,62.20
2022-08-03T12:16:06.442Z,60.42
2022-08-03T12:17:06.453Z,58.49
2022-08-03T12:18:06.429Z,60.26
2022-08-03T12:19:06.424Z,58.65
2022-08-03T12:20:06.435Z,60.75
2022-08-03T12:21:06.420Z,59.30
2022-08-03T12:22:06.413Z,60.10
2022-08-03T12:23:06.390Z,58.49
2022-08-03T12:24:06.383Z,58.49
2022-08-03T12:25:06.376Z,59.46
2022-08-03T12:26:06.366Z,58.17
2022-08-03T12:27:06.373Z,59.14
2022-08-03T12:28:06.344Z,60.26
2022-08-03T12:29:07.345Z,60.91
2022-08-03T12:30:06.406Z,60.42
2022-08-03T12:31:06.329Z,63.16
2022-08-03T12:32:06.353Z,62.68
2022-08-03T12:33:06.322Z,63.00
2022-08-03T12:34:06.304Z,58.81
2022-08-03T12:35:06.340Z,61.39
2022-08-03T12:36:06.286Z,60.75
2022-08-03T12:37:22.195Z,58.65
2022-08-03T12:38:07.272Z,60.26
2022-08-03T12:39:06.269Z,60.42
2022-08-03T12:40:10.013Z,60.26
2022-08-03T12:41:07.253Z,58.49
2022-08-03T12:42:06.269Z,60.42
2022-08-03T12:43:06.238Z,60.91
2022-08-03T12:44:06.229Z,60.91
2022-08-03T12:45:06.216Z,60.59
2022-08-03T12:46:06.220Z,63.00
2022-08-03T12:47:06.226Z,60.75
2022-08-03T12:48:06.193Z,59.94
2022-08-03T12:49:06.247Z,62.36
2022-08-03T12:50:06.242Z,58.17
2022-08-03T12:51:06.171Z,58.65
2022-08-03T12:52:07.692Z,59.46